createdAt,value
2023-05-02T00:00:56.880Z,2.70
2023-05-02T00:01:56.930Z,2.60
2023-05-02T00:02:56.991Z,2.70
2023-05-02T00:03:56.909Z,2.90
2023-05-02T00:04:56.853Z,2.30
2023-05-02T00:05:56.852Z,3.00
2023-05-02T00:06:56.926Z,2.90
2023-05-02T00:07:56.826Z,2.60
2023-05-02T00:08:56.832Z,3.10
2023-05-02T00:09:56.861Z,2.50
2023-05-02T00:10:56.814Z,3.20
2023-05-02T00:11:56.814Z,3.20
2023-05-02T00:12:56.885Z,3.00
2023-05-02T00:13:56.797Z,2.60
2023-05-02T00:14:56.785Z,2.20
2023-05-02T00:15:56.784Z,2.90
2023-05-02T00:16:56.802Z,2.70
2023-05-02T00:17:56.836Z,3.40
2023-05-02T00:18:56.768Z,2.90
2023-05-02T00:19:56.878Z,3.40
2023-05-02T00:20:56.769Z,3.30
2023-05-02T00:21:56.756Z,3.30
2023-05-02T00:22:56.752Z,3.30
2023-05-02T00:23:56.732Z,3.60
2023-05-02T00:24:56.735Z,2.80
2023-05-02T00:25:56.723Z,2.50
2023-05-02T00:26:56.714Z,3.30
2023-05-02T00:27:56.709Z,3.20
2023-05-02T00:28:56.698Z,2.80
2023-05-02T00:29:56.804Z,2.00
2023-05-02T00:30:56.712Z,3.90
2023-05-02T00:31:56.689Z,3.10
2023-05-02T00:32:56.739Z,2.70
2023-05-02T00:33:56.668Z,2.30
2023-05-02T00:34:56.749Z,3.70
2023-05-02T00:35:56.655Z,2.60
2023-05-02T00:36:56.658Z,2.60
2023-05-02T00:37:56.639Z,2.60
2023-05-02T00:38:56.641Z,2.50
2023-05-02T00:39:56.657Z,2.80
2023-05-02T00:40:56.629Z,2.60
2023-05-02T00:41:56.625Z,3.40
2023-05-02T00:42:56.618Z,3.00
2023-05-02T00:43:56.610Z,2.80
2023-05-02T00:44:56.607Z,2.70
2023-05-02T00:45:56.639Z,3.50
2023-05-02T00:46:56.830Z,2.70
2023-05-02T00:47:56.610Z,2.80
2023-05-02T00:48:56.571Z,3.50
2023-05-02T00:49:56.613Z,3.10
2023-05-02T00:50:56.556Z,3.00
2023-05-02T00:51:56.563Z,3.60
2023-05-02T00:52:56.549Z,3.40
2023-05-02T00:53:56.541Z,3.60
2023-05-02T00:54:56.540Z,2.40
2023-05-02T00:55:56.530Z,3.10
2023-05-02T00:56:56.530Z,4.10
2023-05-02T00:57:56.515Z,3.30
2023-05-02T00:58:56.510Z,3.80
2023-05-02T00:59:56.533Z,3.60
2023-05-02T01:00:56.501Z,4.20
2023-05-02T01:01:56.552Z,2.90
2023-05-02T01:02:56.554Z,3.60
2023-05-02T01:03:56.608Z,3.90
2023-05-02T01:04:56.476Z,4.40
2023-05-02T01:05:56.469Z,4.60
2023-05-02T01:06:56.460Z,3.90
2023-05-02T01:07:56.469Z,3.60
2023-05-02T01:08:56.449Z,3.50
2023-05-02T01:09:56.490Z,3.90
2023-05-02T01:10:56.440Z,3.50
2023-05-02T01:11:56.429Z,4.90
2023-05-02T01:12:56.433Z,3.20
2023-05-02T01:13:56.418Z,3.80
2023-05-02T01:14:56.429Z,3.20
2023-05-02T01:15:56.444Z,4.00
2023-05-02T01:16:56.398Z,3.10
2023-05-02T01:17:56.562Z,3.00
2023-05-02T01:18:56.410Z,4.10
2023-05-02T01:19:56.383Z,3.30
2023-05-02T01:20:56.382Z,2.90
2023-05-02T01:21:56.366Z,3.00
2023-05-02T01:22:56.360Z,3.60
2023-05-02T01:23:56.367Z,2.90
2023-05-02T01:24:56.348Z,4.10
2023-05-02T01:25:56.345Z,3.40
2023-05-02T01:26:56.333Z,3.00
2023-05-02T01:27:56.332Z,3.30
2023-05-02T01:28:56.325Z,3.50
2023-05-02T01:29:56.318Z,2.70
2023-05-02T01:30:56.316Z,3.90
2023-05-02T01:31:56.343Z,3.40
2023-05-02T01:32:56.334Z,5.00
2023-05-02T01:33:56.303Z,3.30
2023-05-02T01:34:56.287Z,3.70
2023-05-02T01:35:56.281Z,3.60
2023-05-02T01:36:56.274Z,3.40
2023-05-02T01:37:56.273Z,2.70
2023-05-02T01:38:56.270Z,4.30
2023-05-02T01:39:56.259Z,4.80
2023-05-02T01:40:56.249Z,3.10
2023-05-02T01:41:56.249Z,3.40
2023-05-02T01:42:56.239Z,4.60
2023-05-02T01:43:56.238Z,4.40
2023-05-02T01:44:56.221Z,5.60
2023-05-02T01:45:56.223Z,4.70
2023-05-02T01:46:56.256Z,5.00
2023-05-02T01:47:56.245Z,6.40
2023-05-02T01:48:56.204Z,5.30
2023-05-02T01:49:56.194Z,7.20
2023-05-02T01:50:56.197Z,5.50
2023-05-02T01:51:56.193Z,5.20
2023-05-02T01:52:56.176Z,5.30
2023-05-02T01:53:56.174Z,6.80
2023-05-02T01:54:56.164Z,6.10
2023-05-02T01:55:56.160Z,6.10
2023-05-02T01:56:56.159Z,6.50
2023-05-02T01:57:56.139Z,5.20
2023-05-02T01:58:56.142Z,5.10
2023-05-02T01:59:56.136Z,4.40
2023-05-02T02:00:56.152Z,5.50
2023-05-02T02:01:56.127Z,6.40
2023-05-02T02:02:56.152Z,7.00
2023-05-02T02:03:56.184Z,5.00
2023-05-02T02:04:56.109Z,4.40
2023-05-02T02:05:56.098Z,5.10
2023-05-02T02:06:56.095Z,5.00
2023-05-02T02:07:56.091Z,6.10
2023-05-02T02:08:56.081Z,6.20
2023-05-02T02:09:56.083Z,6.20
2023-05-02T02:10:56.182Z,4.90
2023-05-02T02:11:56.072Z,5.90
2023-05-02T02:12:56.076Z,6.10
2023-05-02T02:13:56.053Z,6.20
2023-05-02T02:14:56.044Z,5.20
2023-05-02T02:15:56.037Z,6.00
2023-05-02T02:16:56.124Z,4.70
2023-05-02T02:17:56.025Z,5.40
2023-05-02T02:18:56.022Z,6.00
2023-05-02T02:19:56.015Z,5.80
2023-05-02T02:20:56.023Z,4.60
2023-05-02T02:21:56.005Z,5.50
2023-05-02T02:22:56.006Z,5.10
2023-05-02T02:23:55.993Z,7.20
2023-05-02T02:24:55.986Z,5.00
2023-05-02T02:25:55.980Z,5.60
2023-05-02T02:26:55.969Z,6.40
2023-05-02T02:27:55.961Z,5.60
2023-05-02T02:28:55.954Z,6.90
2023-05-02T02:29:55.963Z,6.10
2023-05-02T02:30:55.978Z,7.50
2023-05-02T02:31:55.938Z,7.40
2023-05-02T02:32:55.949Z,7.60
2023-05-02T02:33:55.929Z,7.20
2023-05-02T02:34:55.916Z,5.80
2023-05-02T02:35:55.933Z,6.80
2023-05-02T02:36:55.920Z,7.50
2023-05-02T02:37:55.940Z,7.60
2023-05-02T02:38:55.894Z,6.80
2023-05-02T02:39:55.908Z,7.30
2023-05-02T02:40:55.882Z,6.80
2023-05-02T02:41:55.874Z,7.50
2023-05-02T02:42:55.883Z,7.90
2023-05-02T02:43:55.864Z,6.90
2023-05-02T02:44:55.880Z,7.00
2023-05-02T02:45:55.944Z,7.50
2023-05-02T02:46:55.845Z,6.40
2023-05-02T02:47:55.867Z,7.10
2023-05-02T02:48:55.838Z,6.40
2023-05-02T02:49:55.829Z,6.60
2023-05-02T02:50:55.826Z,6.70
2023-05-02T02:51:55.812Z,7.10
2023-05-02T02:52:55.840Z,6.60
2023-05-02T02:53:55.810Z,9.10
2023-05-02T02:54:55.796Z,7.90
2023-05-02T02:55:55.805Z,6.30
2023-05-02T02:56:55.794Z,6.70
2023-05-02T02:57:55.792Z,6.90
2023-05-02T02:58:55.893Z,7.50
2023-05-02T02:59:55.796Z,7.20
2023-05-02T03:00:55.772Z,8.20
2023-05-02T03:01:55.792Z,8.50
2023-05-02T03:02:55.788Z,6.40
2023-05-02T03:03:55.801Z,8.30
2023-05-02T03:04:55.740Z,6.10
2023-05-02T03:05:55.730Z,7.20
2023-05-02T03:06:55.837Z,6.50
2023-05-02T03:07:55.748Z,6.50
2023-05-02T03:08:55.718Z,6.20
2023-05-02T03:09:55.712Z,8.40
2023-05-02T03:10:55.696Z,8.00
2023-05-02T03:11:55.705Z,7.50
2023-05-02T03:12:55.827Z,6.90
2023-05-02T03:13:55.705Z,6.30
2023-05-02T03:14:55.691Z,7.30
2023-05-02T03:15:55.728Z,5.50
2023-05-02T03:16:55.678Z,6.00
2023-05-02T03:17:55.729Z,7.00
2023-05-02T03:18:55.669Z,6.50
2023-05-02T03:19:55.659Z,6.50
2023-05-02T03:20:55.671Z,9.20
2023-05-02T03:21:55.629Z,5.90
2023-05-02T03:22:55.652Z,5.80
2023-05-02T03:23:55.633Z,6.00
2023-05-02T03:24:55.636Z,6.10
2023-05-02T03:25:55.605Z,6.20
2023-05-02T03:26:55.615Z,5.50
2023-05-02T03:27:55.610Z,5.70
2023-05-02T03:28:55.605Z,4.50
2023-05-02T03:29:55.587Z,6.50
2023-05-02T03:30:55.584Z,6.20
2023-05-02T03:31:55.634Z,6.30
2023-05-02T03:32:55.588Z,7.10
2023-05-02T03:33:55.552Z,8.00
2023-05-02T03:34:55.554Z,5.70
2023-05-02T03:35:55.554Z,5.40
2023-05-02T03:36:55.550Z,5.90
2023-05-02T03:37:55.543Z,5.90
2023-05-02T03:38:55.526Z,5.80
2023-05-02T03:39:55.526Z,4.80
2023-05-02T03:40:55.525Z,5.20
2023-05-02T03:41:55.524Z,5.50
2023-05-02T03:42:55.507Z,4.90
2023-05-02T03:43:55.502Z,6.40
2023-05-02T03:44:55.505Z,5.90
2023-05-02T03:45:55.496Z,7.00
2023-05-02T03:46:55.661Z,6.40
2023-05-02T03:47:55.534Z,7.00
2023-05-02T03:48:55.478Z,5.40
2023-05-02T03:49:55.472Z,6.40
2023-05-02T03:50:55.461Z,6.60
2023-05-02T03:51:55.442Z,5.50
2023-05-02T03:52:55.457Z,4.70
2023-05-02T03:53:55.454Z,5.10
2023-05-02T03:54:55.430Z,5.70
2023-05-02T03:55:55.429Z,6.70
2023-05-02T03:56:55.457Z,5.30
2023-05-02T03:57:55.417Z,7.50
2023-05-02T03:58:55.409Z,6.20
2023-05-02T03:59:55.419Z,7.60
2023-05-02T04:00:55.395Z,5.80
2023-05-02T04:01:55.438Z,5.90
2023-05-02T04:02:55.491Z,6.70
2023-05-02T04:03:55.403Z,6.10
2023-05-02T04:04:55.400Z,6.30
2023-05-02T04:05:55.367Z,6.10
2023-05-02T04:06:55.424Z,5.60
2023-05-02T04:07:55.350Z,5.50
2023-05-02T04:08:55.352Z,5.50
2023-05-02T04:09:55.331Z,5.90
2023-05-02T04:10:55.334Z,5.10
2023-05-02T04:11:55.330Z,4.80
2023-05-02T04:12:55.319Z,6.00
2023-05-02T04:13:55.314Z,5.80
2023-05-02T04:14:55.319Z,6.30
2023-05-02T04:15:55.297Z,5.20
2023-05-02T04:16:55.340Z,5.00
2023-05-02T04:17:55.350Z,6.20
2023-05-02T04:18:55.284Z,5.10
2023-05-02T04:19:55.317Z,5.40
2023-05-02T04:20:55.285Z,5.80
2023-05-02T04:21:55.272Z,5.30
2023-05-02T04:22:55.253Z,5.20
2023-05-02T04:23:55.248Z,6.80
2023-05-02T04:24:55.245Z,5.60
2023-05-02T04:25:55.235Z,4.80
2023-05-02T04:26:55.247Z,6.50
2023-05-02T04:27:55.231Z,5.90
2023-05-02T04:28:55.233Z,6.00
2023-05-02T04:29:55.220Z,5.20
2023-05-02T04:30:55.244Z,6.00
2023-05-02T04:31:55.209Z,6.20
2023-05-02T04:32:55.244Z,5.90
2023-05-02T04:33:55.194Z,6.10
2023-05-02T04:34:55.177Z,5.90
2023-05-02T04:35:55.186Z,7.60
2023-05-02T04:36:55.205Z,4.80
2023-05-02T04:37:55.163Z,4.90
2023-05-02T04:38:55.150Z,6.30
2023-05-02T04:39:55.146Z,6.70
2023-05-02T04:40:55.141Z,6.40
2023-05-02T04:41:55.128Z,5.00
2023-05-02T04:42:55.132Z,6.50
2023-05-02T04:43:55.119Z,5.40
2023-05-02T04:44:55.122Z,5.00
2023-05-02T04:45:55.165Z,5.20
2023-05-02T04:46:55.152Z,6.10
2023-05-02T04:47:55.164Z,6.70
2023-05-02T04:48:55.087Z,5.60
2023-05-02T04:49:55.101Z,5.20
2023-05-02T04:50:55.077Z,5.20
2023-05-02T04:51:55.071Z,4.60
2023-05-02T04:52:55.068Z,6.10
2023-05-02T04:53:55.054Z,6.00
2023-05-02T04:54:55.136Z,4.80
2023-05-02T04:55:55.050Z,5.60
2023-05-02T04:56:55.049Z,5.60
2023-05-02T04:57:55.032Z,6.50
2023-05-02T04:58:55.021Z,6.10
2023-05-02T04:59:55.028Z,4.60
2023-05-02T05:00:55.018Z,5.50
2023-05-02T05:01:55.027Z,7.60
2023-05-02T05:02:55.098Z,4.50
2023-05-02T05:03:55.134Z,5.00
2023-05-02T05:04:55.017Z,6.10
2023-05-02T05:05:54.981Z,5.80
2023-05-02T05:06:55.065Z,6.70
2023-05-02T05:07:54.978Z,7.00
2023-05-02T05:08:54.967Z,6.60
2023-05-02T05:09:54.957Z,5.60
2023-05-02T05:10:54.948Z,6.50
2023-05-02T05:11:54.942Z,4.50
2023-05-02T05:12:54.942Z,4.80
2023-05-02T05:13:54.928Z,6.00
2023-05-02T05:14:54.930Z,5.80
2023-05-02T05:15:54.951Z,5.00
2023-05-02T05:16:54.917Z,4.50
2023-05-02T05:17:54.979Z,6.70
2023-05-02T05:18:54.901Z,5.30
2023-05-02T05:19:54.908Z,4.60
2023-05-02T05:20:54.891Z,5.00
2023-05-02T05:21:54.893Z,4.60
2023-05-02T05:22:54.877Z,6.10
2023-05-02T05:23:54.878Z,5.90
2023-05-02T05:24:54.876Z,4.10
2023-05-02T05:25:54.866Z,4.70
2023-05-02T05:26:54.865Z,5.00
2023-05-02T05:27:54.854Z,5.10
2023-05-02T05:28:54.847Z,4.70
2023-05-02T05:29:54.841Z,4.70
2023-05-02T05:30:54.835Z,5.40
2023-05-02T05:31:54.834Z,4.90
2023-05-02T05:32:54.881Z,3.50
2023-05-02T05:33:54.849Z,5.10
2023-05-02T05:34:54.815Z,5.20
2023-05-02T05:35:54.797Z,4.50
2023-05-02T05:36:54.839Z,5.20
2023-05-02T05:37:54.797Z,5.30
2023-05-02T05:38:54.783Z,4.80
2023-05-02T05:39:54.776Z,4.80
2023-05-02T05:40:54.772Z,4.70
2023-05-02T05:41:54.767Z,3.90
2023-05-02T05:42:54.776Z,5.10
2023-05-02T05:43:54.763Z,4.80
2023-05-02T05:44:54.751Z,5.00
2023-05-02T05:45:54.742Z,4.30
2023-05-02T05:46:54.802Z,5.40
2023-05-02T05:47:54.748Z,4.50
2023-05-02T05:48:54.721Z,4.10
2023-05-02T05:49:54.722Z,5.10
2023-05-02T05:50:54.717Z,5.20
2023-05-02T05:51:54.709Z,5.60
2023-05-02T05:52:54.703Z,5.70
2023-05-02T05:53:54.686Z,5.90
2023-05-02T05:54:54.684Z,5.20
2023-05-02T05:55:54.682Z,4.70
2023-05-02T05:56:54.666Z,5.90
2023-05-02T05:57:54.674Z,5.80
2023-05-02T05:58:54.664Z,5.10
2023-05-02T05:59:54.664Z,6.40
2023-05-02T06:00:54.657Z,6.70
2023-05-02T06:01:54.644Z,5.50
2023-05-02T06:02:54.731Z,4.70
2023-05-02T06:03:54.647Z,5.60
2023-05-02T06:04:54.677Z,4.90
2023-05-02T06:05:54.619Z,6.00
2023-05-02T06:06:54.700Z,5.40
2023-05-02T06:07:54.606Z,4.60
2023-05-02T06:08:54.606Z,5.10
2023-05-02T06:09:54.597Z,6.10
2023-05-02T06:10:54.585Z,6.30
2023-05-02T06:11:54.593Z,4.20
2023-05-02T06:12:54.585Z,5.10
2023-05-02T06:13:54.567Z,5.50
2023-05-02T06:14:54.568Z,5.20
2023-05-02T06:15:54.574Z,5.10
2023-05-02T06:16:54.551Z,5.90
2023-05-02T06:17:54.601Z,5.30
2023-05-02T06:18:54.549Z,5.00
2023-05-02T06:19:54.533Z,6.20
2023-05-02T06:20:54.526Z,5.50
2023-05-02T06:21:54.516Z,4.90
2023-05-02T06:22:54.518Z,6.50
2023-05-02T06:23:54.508Z,5.30
2023-05-02T06:24:54.505Z,3.80
2023-05-02T06:25:54.519Z,6.00
2023-05-02T06:26:54.499Z,5.60
2023-05-02T06:27:54.481Z,4.30
2023-05-02T06:28:54.480Z,6.20
2023-05-02T06:29:54.482Z,5.80
2023-05-02T06:30:54.466Z,6.60
2023-05-02T06:31:54.503Z,5.30
2023-05-02T06:32:54.472Z,6.20
2023-05-02T06:33:54.449Z,4.30
2023-05-02T06:34:54.435Z,4.30
2023-05-02T06:35:54.427Z,3.70
2023-05-02T06:36:54.431Z,4.60
2023-05-02T06:37:54.421Z,5.00
2023-05-02T06:38:54.419Z,4.80
2023-05-02T06:39:54.404Z,5.60
2023-05-02T06:40:54.401Z,5.50
2023-05-02T06:41:54.399Z,6.40
2023-05-02T06:42:54.408Z,5.30
2023-05-02T06:43:54.384Z,6.40
2023-05-02T06:44:54.387Z,6.10
2023-05-02T06:45:54.392Z,6.30
2023-05-02T06:46:54.396Z,4.10
2023-05-02T06:47:54.442Z,5.80
2023-05-02T06:48:54.349Z,4.50
2023-05-02T06:49:54.376Z,6.10
2023-05-02T06:50:54.401Z,4.60
2023-05-02T06:51:54.336Z,5.40
2023-05-02T06:52:54.328Z,5.80
2023-05-02T06:53:54.327Z,6.00
2023-05-02T06:54:54.317Z,5.70
2023-05-02T06:55:54.313Z,4.50
2023-05-02T06:56:54.307Z,6.00
2023-05-02T06:57:54.300Z,5.60
2023-05-02T06:58:54.294Z,4.80
2023-05-02T06:59:54.311Z,6.20
2023-05-02T07:00:54.300Z,4.20
2023-05-02T07:01:54.271Z,5.40
2023-05-02T07:02:54.316Z,4.30
2023-05-02T07:03:54.333Z,5.00
2023-05-02T07:04:54.263Z,6.40
2023-05-02T07:05:54.253Z,4.70
2023-05-02T07:06:54.297Z,4.90
2023-05-02T07:07:54.250Z,4.60
2023-05-02T07:08:54.234Z,5.90
2023-05-02T07:09:54.245Z,5.80
2023-05-02T07:10:54.219Z,3.90
2023-05-02T07:11:54.209Z,4.80
2023-05-02T07:12:54.205Z,4.70
2023-05-02T07:13:54.206Z,5.60
2023-05-02T07:14:54.211Z,4.90
2023-05-02T07:15:54.191Z,4.40
2023-05-02T07:16:54.225Z,5.10
2023-05-02T07:17:54.275Z,5.20
2023-05-02T07:18:54.165Z,4.70
2023-05-02T07:19:54.215Z,5.60
2023-05-02T07:20:54.151Z,5.00
2023-05-02T07:21:54.152Z,3.10
2023-05-02T07:22:54.144Z,6.00
2023-05-02T07:23:54.137Z,4.60
2023-05-02T07:24:54.139Z,4.70
2023-05-02T07:25:54.138Z,5.10
2023-05-02T07:26:54.129Z,3.50
2023-05-02T07:27:54.126Z,4.00
2023-05-02T07:28:54.116Z,3.80
2023-05-02T07:29:54.101Z,3.70
2023-05-02T07:30:54.100Z,5.00
2023-05-02T07:31:54.125Z,4.60
2023-05-02T07:32:54.117Z,4.20
2023-05-02T07:33:54.079Z,3.60
2023-05-02T07:34:54.077Z,4.00
2023-05-02T07:35:54.080Z,2.90
2023-05-02T07:36:54.066Z,3.40
2023-05-02T07:37:54.062Z,4.00
2023-05-02T07:38:54.053Z,3.00
2023-05-02T07:39:54.067Z,3.60
2023-05-02T07:40:54.047Z,2.10
2023-05-02T07:41:54.035Z,4.50
2023-05-02T07:42:54.020Z,3.20
2023-05-02T07:43:54.022Z,2.10
2023-05-02T07:44:54.020Z,3.30
2023-05-02T07:45:54.099Z,2.80
2023-05-02T07:46:54.018Z,3.10
2023-05-02T07:47:54.047Z,3.60
2023-05-02T07:48:54.012Z,3.30
2023-05-02T07:49:53.990Z,3.10
2023-05-02T07:50:53.985Z,2.70
2023-05-02T07:51:53.990Z,3.70
2023-05-02T07:52:53.966Z,4.10
2023-05-02T07:53:53.962Z,3.10
2023-05-02T07:54:53.955Z,3.50
2023-05-02T07:55:53.952Z,4.20
2023-05-02T07:56:53.954Z,3.00
2023-05-02T07:57:53.941Z,2.10
2023-05-02T07:58:53.933Z,3.20
2023-05-02T07:59:53.948Z,3.10
2023-05-02T08:00:53.924Z,3.70
2023-05-02T08:01:53.931Z,2.90
2023-05-02T08:02:54.009Z,2.60
2023-05-02T08:03:54.110Z,2.60
2023-05-02T08:04:53.983Z,3.00
2023-05-02T08:05:53.905Z,2.60
2023-05-02T08:06:53.956Z,2.50
2023-05-02T08:07:53.879Z,3.30
2023-05-02T08:08:53.878Z,2.80
2023-05-02T08:09:53.868Z,3.70
2023-05-02T08:10:53.861Z,4.40
2023-05-02T08:11:53.857Z,3.00
2023-05-02T08:12:53.850Z,4.30
2023-05-02T08:13:53.849Z,3.30
2023-05-02T08:14:53.837Z,2.30
2023-05-02T08:15:53.856Z,2.30
2023-05-02T08:16:53.875Z,2.90
2023-05-02T08:17:53.870Z,3.60
2023-05-02T08:18:53.941Z,4.70
2023-05-02T08:19:53.808Z,3.80
2023-05-02T08:20:53.798Z,3.30
2023-05-02T08:21:53.801Z,2.60
2023-05-02T08:22:53.788Z,2.80
2023-05-02T08:23:53.788Z,3.50
2023-05-02T08:24:53.814Z,2.60
2023-05-02T08:25:53.772Z,3.90
2023-05-02T08:26:53.808Z,4.10
2023-05-02T08:27:53.766Z,4.30
2023-05-02T08:28:53.760Z,3.80
2023-05-02T08:29:53.762Z,3.00
2023-05-02T08:30:53.771Z,3.90
2023-05-02T08:31:53.831Z,2.50
2023-05-02T08:32:53.878Z,3.00
2023-05-02T08:33:53.734Z,4.50
2023-05-02T08:34:53.750Z,2.40
2023-05-02T08:35:53.721Z,3.80
2023-05-02T08:36:54.445Z,3.90
2023-05-02T08:37:53.693Z,3.60
2023-05-02T08:38:53.730Z,4.10
2023-05-02T08:39:53.686Z,2.50
2023-05-02T08:40:53.714Z,1.90
2023-05-02T08:41:53.708Z,2.90
2023-05-02T08:42:53.675Z,3.10
2023-05-02T08:43:53.662Z,5.10
2023-05-02T08:44:53.658Z,3.50
2023-05-02T08:45:53.658Z,2.70
2023-05-02T08:46:53.682Z,3.30
2023-05-02T08:47:53.724Z,3.50
2023-05-02T08:48:53.633Z,3.20
2023-05-02T08:49:53.628Z,3.70
2023-05-02T08:50:53.643Z,3.70
2023-05-02T08:51:53.644Z,3.90
2023-05-02T08:52:53.641Z,3.70
2023-05-02T08:53:53.624Z,2.80
2023-05-02T08:54:53.620Z,5.20
2023-05-02T08:55:53.606Z,3.80
2023-05-02T08:56:53.590Z,3.80
2023-05-02T08:57:53.573Z,3.60
2023-05-02T08:58:53.575Z,3.20
2023-05-02T08:59:53.578Z,4.00
2023-05-02T09:00:53.622Z,4.80
2023-05-02T09:01:53.559Z,3.30
2023-05-02T09:02:53.617Z,3.80
2023-05-02T09:03:53.578Z,3.20
2023-05-02T09:04:53.549Z,4.50
2023-05-02T09:05:53.551Z,3.30
2023-05-02T09:06:53.557Z,3.90
2023-05-02T09:07:53.548Z,3.00
2023-05-02T09:08:53.521Z,3.50
2023-05-02T09:09:53.509Z,3.70
2023-05-02T09:10:53.509Z,3.00
2023-05-02T09:11:53.497Z,3.90
2023-05-02T09:12:53.491Z,2.40
2023-05-02T09:13:53.490Z,3.20
2023-05-02T09:14:53.495Z,2.60
2023-05-02T09:15:53.485Z,2.50
2023-05-02T09:16:53.648Z,3.90
2023-05-02T09:17:53.525Z,2.70
2023-05-02T09:18:53.450Z,3.30
2023-05-02T09:19:53.469Z,4.10
2023-05-02T09:20:53.463Z,3.50
2023-05-02T09:21:53.442Z,3.50
2023-05-02T09:22:53.460Z,3.30
2023-05-02T09:23:53.429Z,3.00
2023-05-02T09:24:53.441Z,3.30
2023-05-02T09:25:53.439Z,2.70
2023-05-02T09:26:53.402Z,2.60
2023-05-02T09:27:53.430Z,3.50
2023-05-02T09:28:53.405Z,2.80
2023-05-02T09:29:53.388Z,3.60
2023-05-02T09:30:53.429Z,4.40
2023-05-02T09:31:56.167Z,3.50
2023-05-02T09:32:53.409Z,3.90
2023-05-02T09:33:53.359Z,3.00
2023-05-02T09:34:53.381Z,2.90
2023-05-02T09:35:53.376Z,3.20
2023-05-02T09:36:53.346Z,5.30
2023-05-02T09:37:53.367Z,3.50
2023-05-02T09:38:53.339Z,3.50
2023-05-02T09:39:53.331Z,3.10
2023-05-02T09:40:53.344Z,4.40
2023-05-02T09:41:53.434Z,3.60
2023-05-02T09:42:53.331Z,3.20
2023-05-02T09:43:53.322Z,3.70
2023-05-02T09:44:53.301Z,4.10
2023-05-02T09:45:53.355Z,3.20
2023-05-02T09:46:53.309Z,2.80
2023-05-02T09:47:53.363Z,3.00
2023-05-02T09:48:53.284Z,2.90
2023-05-02T09:49:53.272Z,4.50
2023-05-02T09:50:53.263Z,3.60
2023-05-02T09:51:53.273Z,3.20
2023-05-02T09:52:53.311Z,3.70
2023-05-02T09:53:53.287Z,4.10
2023-05-02T09:54:53.321Z,3.90
2023-05-02T09:55:53.243Z,4.30
2023-05-02T09:56:53.244Z,2.60
2023-05-02T09:57:53.229Z,3.00
2023-05-02T09:58:53.233Z,4.00
2023-05-02T09:59:53.224Z,4.00
2023-05-02T10:00:53.215Z,3.20
2023-05-02T10:01:53.237Z,3.10
2023-05-02T10:02:53.305Z,2.60
2023-05-02T10:03:53.209Z,3.00
2023-05-02T10:04:53.188Z,3.20
2023-05-02T10:05:53.185Z,2.60
2023-05-02T10:06:53.223Z,2.70
2023-05-02T10:07:53.171Z,2.90
2023-05-02T10:08:53.200Z,2.70
2023-05-02T10:09:53.157Z,4.60
2023-05-02T10:10:53.171Z,3.70
2023-05-02T10:11:53.176Z,2.90
2023-05-02T10:12:53.168Z,2.30
2023-05-02T10:13:53.157Z,2.20
2023-05-02T10:14:53.159Z,2.20
2023-05-02T10:15:53.193Z,2.70
2023-05-02T10:16:53.123Z,1.70
2023-05-02T10:17:53.147Z,3.40
2023-05-02T10:18:53.112Z,1.80
2023-05-02T10:19:53.105Z,2.70
2023-05-02T10:20:53.110Z,3.10
2023-05-02T10:21:53.107Z,2.00
2023-05-02T10:22:53.134Z,1.90
2023-05-02T10:23:53.098Z,2.30
2023-05-02T10:24:53.087Z,2.30
2023-05-02T10:25:53.080Z,1.80
2023-05-02T10:26:53.076Z,2.00
2023-05-02T10:27:53.096Z,2.10
2023-05-02T10:28:53.080Z,2.80
2023-05-02T10:29:53.051Z,3.20
2023-05-02T10:30:53.062Z,2.00
2023-05-02T10:31:53.103Z,1.90
2023-05-02T10:32:53.091Z,2.70
2023-05-02T10:33:53.030Z,2.90
2023-05-02T10:34:53.014Z,2.40
2023-05-02T10:35:53.022Z,2.70
2023-05-02T10:36:53.000Z,2.10
2023-05-02T10:37:52.997Z,1.70
2023-05-02T10:38:52.996Z,2.10
2023-05-02T10:39:52.988Z,2.70
2023-05-02T10:40:52.978Z,3.00
2023-05-02T10:41:52.975Z,2.50
2023-05-02T10:42:52.974Z,1.70
2023-05-02T10:43:52.955Z,2.80
2023-05-02T10:44:52.954Z,1.90
2023-05-02T10:45:52.948Z,2.50
2023-05-02T10:46:53.028Z,1.80
2023-05-02T10:47:52.995Z,2.20
2023-05-02T10:48:52.931Z,1.70
2023-05-02T10:49:52.930Z,2.70
2023-05-02T10:50:52.934Z,2.70
2023-05-02T10:51:52.916Z,1.70
2023-05-02T10:52:52.944Z,2.80
2023-05-02T10:53:52.898Z,2.10
2023-05-02T10:54:52.898Z,2.60
2023-05-02T10:55:52.887Z,2.20
2023-05-02T10:56:52.880Z,2.90
2023-05-02T10:57:52.874Z,2.90
2023-05-02T10:58:52.870Z,3.60
2023-05-02T10:59:52.867Z,2.50
2023-05-02T11:00:53.035Z,3.80
2023-05-02T11:01:52.872Z,3.10
2023-05-02T11:02:52.979Z,2.20
2023-05-02T11:03:52.845Z,3.10
2023-05-02T11:04:52.838Z,2.50
2023-05-02T11:05:52.830Z,2.60
2023-05-02T11:06:52.823Z,3.30
2023-05-02T11:07:52.826Z,3.30
2023-05-02T11:08:52.818Z,2.20
2023-05-02T11:09:52.809Z,4.00
2023-05-02T11:10:52.800Z,3.00
2023-05-02T11:11:52.816Z,3.30
2023-05-02T11:12:52.799Z,2.80
2023-05-02T11:13:52.789Z,3.00
2023-05-02T11:14:52.781Z,3.00
2023-05-02T11:15:52.774Z,3.70
2023-05-02T11:16:52.832Z,2.60
2023-05-02T11:17:52.802Z,2.70
2023-05-02T11:18:52.755Z,3.50
2023-05-02T11:19:52.772Z,4.50
2023-05-02T11:20:52.751Z,2.60
2023-05-02T11:21:52.745Z,3.00
2023-05-02T11:22:52.742Z,2.80
2023-05-02T11:23:52.731Z,2.60
2023-05-02T11:24:52.720Z,2.80
2023-05-02T11:25:52.729Z,3.40
2023-05-02T11:26:52.718Z,4.10
2023-05-02T11:27:52.712Z,3.80
2023-05-02T11:28:52.722Z,3.40
2023-05-02T11:29:52.700Z,3.30
2023-05-02T11:30:52.695Z,2.10
2023-05-02T11:31:52.731Z,3.80
2023-05-02T11:32:52.717Z,4.30
2023-05-02T11:33:52.704Z,3.00
2023-05-02T11:34:52.796Z,2.80
2023-05-02T11:35:52.706Z,3.00
2023-05-02T11:36:52.672Z,4.00
2023-05-02T11:37:52.660Z,2.90
2023-05-02T11:38:52.651Z,2.90
2023-05-02T11:39:52.669Z,3.10
2023-05-02T11:40:52.690Z,3.70
2023-05-02T11:41:52.655Z,3.30
2023-05-02T11:42:52.681Z,2.70
2023-05-02T11:43:52.667Z,2.80
2023-05-02T11:44:52.659Z,2.90
2023-05-02T11:45:52.709Z,2.70
2023-05-02T11:46:52.618Z,2.50
2023-05-02T11:47:52.712Z,2.10
2023-05-02T11:48:52.612Z,2.30
2023-05-02T11:49:52.602Z,2.80
2023-05-02T11:50:52.596Z,2.80
2023-05-02T11:51:52.592Z,2.60
2023-05-02T11:52:52.582Z,2.90
2023-05-02T11:53:52.607Z,2.80
2023-05-02T11:54:52.571Z,3.00
2023-05-02T11:55:52.572Z,3.80
2023-05-02T11:56:52.573Z,3.60
2023-05-02T11:57:52.564Z,2.80
2023-05-02T11:58:52.558Z,2.60
2023-05-02T11:59:52.570Z,2.70
2023-05-02T12:00:52.556Z,2.80
2023-05-02T12:01:52.556Z,2.70
2023-05-02T12:02:52.585Z,3.10
2023-05-02T12:03:52.651Z,3.80
2023-05-02T12:04:52.524Z,2.90
2023-05-02T12:05:52.573Z,3.20
2023-05-02T12:06:52.656Z,3.20
2023-05-02T12:07:52.529Z,4.10
2023-05-02T12:08:52.538Z,3.40
2023-05-02T12:09:52.503Z,3.90
2023-05-02T12:10:52.501Z,2.80
2023-05-02T12:11:52.498Z,2.60
2023-05-02T12:12:52.496Z,2.70
2023-05-02T12:13:52.489Z,3.70
2023-05-02T12:14:52.484Z,3.30
2023-05-02T12:15:52.533Z,3.20
2023-05-02T12:16:52.472Z,3.30
2023-05-02T12:17:52.491Z,2.90
2023-05-02T12:18:52.576Z,3.50
2023-05-02T12:19:52.456Z,3.30
2023-05-02T12:20:52.485Z,2.60
2023-05-02T12:21:52.447Z,3.10
2023-05-02T12:22:52.448Z,3.00
2023-05-02T12:23:52.440Z,3.00
2023-05-02T12:24:52.429Z,2.50
2023-05-02T12:25:52.421Z,3.00
2023-05-02T12:26:53.009Z,3.00
2023-05-02T12:27:52.434Z,3.30
2023-05-02T12:28:52.490Z,2.20
2023-05-02T12:29:52.404Z,2.20
2023-05-02T12:30:52.405Z,3.10
2023-05-02T12:31:52.574Z,2.80
2023-05-02T12:32:52.412Z,2.90
2023-05-02T12:33:52.437Z,2.10
2023-05-02T12:34:52.396Z,2.90
2023-05-02T12:35:52.374Z,2.60
2023-05-02T12:36:52.384Z,2.50
2023-05-02T12:37:52.376Z,3.10
2023-05-02T12:38:52.370Z,2.80
2023-05-02T12:39:52.360Z,2.50
2023-05-02T12:40:52.360Z,3.10
2023-05-02T12:41:52.348Z,4.20
2023-05-02T12:42:52.344Z,2.70
2023-05-02T12:43:52.348Z,3.10
2023-05-02T12:44:52.348Z,3.00
2023-05-02T12:45:52.343Z,2.80
2023-05-02T12:46:52.375Z,2.40
2023-05-02T12:47:52.390Z,2.90
2023-05-02T12:48:52.318Z,3.00
2023-05-02T12:49:52.310Z,2.70
2023-05-02T12:50:52.496Z,2.90
2023-05-02T12:51:52.302Z,3.20
2023-05-02T12:52:52.302Z,3.50
2023-05-02T12:53:52.287Z,2.80
2023-05-02T12:54:52.292Z,2.60
2023-05-02T12:55:52.283Z,4.00
2023-05-02T12:56:52.279Z,3.50
2023-05-02T12:57:52.283Z,3.40
2023-05-02T12:58:52.272Z,2.70
2023-05-02T12:59:52.262Z,2.60
2023-05-02T13:00:52.283Z,3.30
2023-05-02T13:01:52.255Z,3.20
2023-05-02T13:02:52.318Z,3.10
2023-05-02T13:03:52.259Z,3.10
2023-05-02T13:04:52.247Z,3.30
2023-05-02T13:05:52.241Z,4.60
2023-05-02T13:06:52.345Z,3.70
2023-05-02T13:07:52.229Z,3.30
2023-05-02T13:08:52.223Z,4.10
2023-05-02T13:09:52.224Z,2.90
2023-05-02T13:10:52.205Z,3.70
2023-05-02T13:11:52.207Z,4.10
2023-05-02T13:12:52.204Z,3.60
2023-05-02T13:13:52.198Z,2.30
2023-05-02T13:14:52.218Z,3.60
2023-05-02T13:15:52.189Z,2.60
2023-05-02T13:16:52.336Z,3.20
2023-05-02T13:17:52.337Z,3.40
2023-05-02T13:18:52.233Z,2.90